sensor_id;sensor_type;location;lat;lon;timestamp;P1;durP1;ratioP1;P2;durP2;ratioP2
24161;SDS011;12318;51.262;7.066;2023-09-18T00:01:17;15.90;;;3.92;;
24161;SDS011;12318;51.262;7.066;2023-09-18T00:03:45;10.00;;;2.92;;
24161;SDS011;12318;51.262;7.066;2023-09-18T00:06:11;11.18;;;3.08;;
24161;SDS011;12318;51.262;7.066;2023-09-18T00:08:38;11.02;;;3.10;;
24161;SDS011;12318;51.262;7.066;2023-09-18T00:11:05;8.57;;;3.00;;
24161;SDS011;12318;51.262;7.066;2023-09-18T00:13:32;9.30;;;3.03;;
24161;SDS011;12318;51.262;7.066;2023-09-18T00:15:58;12.07;;;3.95;;
24161;SDS011;12318;51.262;7.066;2023-09-18T00:18:25;13.73;;;3.17;;
24161;SDS011;12318;51.262;7.066;2023-09-18T00:20:51;12.32;;;3.45;;
24161;SDS011;12318;51.262;7.066;2023-09-18T00:23:17;12.25;;;3.22;;
24161;SDS011;12318;51.262;7.066;2023-09-18T00:25:43;10.38;;;3.15;;
24161;SDS011;12318;51.262;7.066;2023-09-18T00:28:09;11.35;;;3.28;;
24161;SDS011;12318;51.262;7.066;2023-09-18T00:30:37;11.43;;;3.45;;
24161;SDS011;12318;51.262;7.066;2023-09-18T00:33:03;14.40;;;2.90;;
24161;SDS011;12318;51.262;7.066;2023-09-18T00:35:29;12.23;;;2.88;;
24161;SDS011;12318;51.262;7.066;2023-09-18T00:37:56;10.05;;;2.75;;
24161;SDS011;12318;51.262;7.066;2023-09-18T00:40:22;11.02;;;3.08;;
24161;SDS011;12318;51.262;7.066;2023-09-18T00:42:49;7.32;;;2.53;;
24161;SDS011;12318;51.262;7.066;2023-09-18T00:45:15;12.60;;;2.90;;
24161;SDS011;12318;51.262;7.066;2023-09-18T00:47:41;19.00;;;3.00;;
24161;SDS011;12318;51.262;7.066;2023-09-18T00:50:08;12.35;;;3.00;;
24161;SDS011;12318;51.262;7.066;2023-09-18T00:52:37;9.50;;;2.92;;
24161;SDS011;12318;51.262;7.066;2023-09-18T00:55:04;8.07;;;2.90;;
24161;SDS011;12318;51.262;7.066;2023-09-18T00:57:31;12.85;;;3.00;;
24161;SDS011;12318;51.262;7.066;2023-09-18T00:59:57;8.70;;;2.97;;
24161;SDS011;12318;51.262;7.066;2023-09-18T01:02:24;10.63;;;3.00;;
24161;SDS011;12318;51.262;7.066;2023-09-18T01:04:51;13.43;;;3.05;;
24161;SDS011;12318;51.262;7.066;2023-09-18T01:07:17;11.02;;;2.90;;
24161;SDS011;12318;51.262;7.066;2023-09-18T01:09:43;9.60;;;2.90;;
24161;SDS011;12318;51.262;7.066;2023-09-18T01:14:42;10.85;;;3.03;;
24161;SDS011;12318;51.262;7.066;2023-09-18T01:17:10;7.00;;;2.90;;
24161;SDS011;12318;51.262;7.066;2023-09-18T01:19:40;7.68;;;2.90;;
24161;SDS011;12318;51.262;7.066;2023-09-18T01:22:06;8.80;;;3.30;;
24161;SDS011;12318;51.262;7.066;2023-09-18T01:24:33;8.68;;;2.88;;
24161;SDS011;12318;51.262;7.066;2023-09-18T01:27:00;8.10;;;2.60;;
24161;SDS011;12318;51.262;7.066;2023-09-18T01:29:26;13.80;;;2.95;;
24161;SDS011;12318;51.262;7.066;2023-09-18T01:31:52;9.38;;;2.65;;
24161;SDS011;12318;51.262;7.066;2023-09-18T01:34:21;15.98;;;3.13;;
24161;SDS011;12318;51.262;7.066;2023-09-18T01:36:51;8.88;;;2.75;;
24161;SDS011;12318;51.262;7.066;2023-09-18T01:39:17;6.93;;;3.00;;
24161;SDS011;12318;51.262;7.066;2023-09-18T01:41:45;8.50;;;2.75;;
24161;SDS011;12318;51.262;7.066;2023-09-18T01:44:11;8.10;;;2.90;;
24161;SDS011;12318;51.262;7.066;2023-09-18T01:46:37;8.95;;;3.08;;
24161;SDS011;12318;51.262;7.066;2023-09-18T01:49:04;8.77;;;2.97;;
24161;SDS011;12318;51.262;7.066;2023-09-18T01:51:30;6.20;;;2.70;;
24161;SDS011;12318;51.262;7.066;2023-09-18T01:53:57;10.27;;;2.92;;
24161;SDS011;12318;51.262;7.066;2023-09-18T01:56:23;6.55;;;2.45;;
24161;SDS011;12318;51.262;7.066;2023-09-18T01:58:49;9.88;;;3.30;;
24161;SDS011;12318;51.262;7.066;2023-09-18T02:01:15;9.98;;;3.50;;
24161;SDS011;12318;51.262;7.066;2023-09-18T02:03:42;8.98;;;2.95;;
24161;SDS011;12318;51.262;7.066;2023-09-18T02:06:08;8.82;;;2.67;;
24161;SDS011;12318;51.262;7.066;2023-09-18T02:08:34;8.48;;;3.25;;
24161;SDS011;12318;51.262;7.066;2023-09-18T02:11:00;12.75;;;3.17;;
24161;SDS011;12318;51.262;7.066;2023-09-18T02:13:28;10.63;;;3.30;;
24161;SDS011;12318;51.262;7.066;2023-09-18T02:15:54;9.90;;;2.83;;
24161;SDS011;12318;51.262;7.066;2023-09-18T02:18:20;11.18;;;2.72;;
24161;SDS011;12318;51.262;7.066;2023-09-18T02:20:46;7.25;;;2.80;;
24161;SDS011;12318;51.262;7.066;2023-09-18T02:23:17;12.77;;;2.53;;
24161;SDS011;12318;51.262;7.066;2023-09-18T02:25:44;7.82;;;2.85;;
24161;SDS011;12318;51.262;7.066;2023-09-18T02:28:10;6.22;;;2.63;;
24161;SDS011;12318;51.262;7.066;2023-09-18T02:30:36;11.73;;;2.70;;
24161;SDS011;12318;51.262;7.066;2023-09-18T02:33:02;9.00;;;2.70;;
24161;SDS011;12318;51.262;7.066;2023-09-18T02:35:29;8.57;;;2.80;;
24161;SDS011;12318;51.262;7.066;2023-09-18T02:37:55;7.22;;;2.70;;
24161;SDS011;12318;51.262;7.066;2023-09-18T02:40:21;5.85;;;2.60;;
24161;SDS011;12318;51.262;7.066;2023-09-18T02:42:48;8.07;;;2.50;;
24161;SDS011;12318;51.262;7.066;2023-09-18T02:45:14;8.98;;;2.92;;
24161;SDS011;12318;51.262;7.066;2023-09-18T02:47:40;8.57;;;2.80;;
24161;SDS011;12318;51.262;7.066;2023-09-18T02:50:07;10.90;;;2.88;;
24161;SDS011;12318;51.262;7.066;2023-09-18T02:52:33;11.30;;;3.47;;
24161;SDS011;12318;51.262;7.066;2023-09-18T02:54:59;8.38;;;2.50;;
24161;SDS011;12318;51.262;7.066;2023-09-18T02:57:25;18.08;;;3.22;;
24161;SDS011;12318;51.262;7.066;2023-09-18T02:59:51;10.27;;;2.75;;
24161;SDS011;12318;51.262;7.066;2023-09-18T03:02:18;12.27;;;3.03;;
24161;SDS011;12318;51.262;7.066;2023-09-18T03:04:44;5.32;;;2.50;;
24161;SDS011;12318;51.262;7.066;2023-09-18T03:07:12;12.63;;;2.72;;
24161;SDS011;12318;51.262;7.066;2023-09-18T03:09:38;8.55;;;3.15;;
24161;SDS011;12318;51.262;7.066;2023-09-18T03:12:04;5.60;;;2.25;;
24161;SDS011;12318;51.262;7.066;2023-09-18T03:14:31;10.45;;;3.22;;
24161;SDS011;12318;51.262;7.066;2023-09-18T03:16:57;11.88;;;3.08;;
24161;SDS011;12318;51.262;7.066;2023-09-18T03:19:23;8.88;;;2.95;;
24161;SDS011;12318;51.262;7.066;2023-09-18T03:21:49;10.95;;;2.53;;
24161;SDS011;12318;51.262;7.066;2023-09-18T03:24:16;8.60;;;2.60;;
24161;SDS011;12318;51.262;7.066;2023-09-18T03:26:42;9.75;;;3.17;;
24161;SDS011;12318;51.262;7.066;2023-09-18T03:29:08;9.93;;;2.80;;
24161;SDS011;12318;51.262;7.066;2023-09-18T03:31:34;9.43;;;2.67;;
24161;SDS011;12318;51.262;7.066;2023-09-18T03:34:01;8.75;;;2.80;;
24161;SDS011;12318;51.262;7.066;2023-09-18T03:36:27;14.13;;;3.20;;
24161;SDS011;12318;51.262;7.066;2023-09-18T03:38:53;8.57;;;3.15;;
24161;SDS011;12318;51.262;7.066;2023-09-18T03:41:19;11.27;;;3.13;;
24161;SDS011;12318;51.262;7.066;2023-09-18T03:43:46;11.30;;;3.47;;
24161;SDS011;12318;51.262;7.066;2023-09-18T03:46:14;6.30;;;2.97;;
24161;SDS011;12318;51.262;7.066;2023-09-18T03:48:40;12.55;;;3.53;;
24161;SDS011;12318;51.262;7.066;2023-09-18T03:51:06;12.68;;;3.63;;
24161;SDS011;12318;51.262;7.066;2023-09-18T03:53:33;12.65;;;3.15;;
24161;SDS011;12318;51.262;7.066;2023-09-18T03:55:59;12.15;;;3.67;;
24161;SDS011;12318;51.262;7.066;2023-09-18T03:58:25;10.63;;;3.47;;
24161;SDS011;12318;51.262;7.066;2023-09-18T04:00:52;9.68;;;3.58;;
24161;SDS011;12318;51.262;7.066;2023-09-18T04:03:18;11.35;;;3.72;;
24161;SDS011;12318;51.262;7.066;2023-09-18T04:05:44;9.43;;;3.60;;
24161;SDS011;12318;51.262;7.066;2023-09-18T04:08:10;10.23;;;3.67;;
24161;SDS011;12318;51.262;7.066;2023-09-18T04:10:38;9.05;;;3.30;;
24161;SDS011;12318;51.262;7.066;2023-09-18T04:13:04;12.20;;;3.97;;
24161;SDS011;12318;51.262;7.066;2023-09-18T04:15:30;14.30;;;3.78;;
24161;SDS011;12318;51.262;7.066;2023-09-18T04:17:56;10.90;;;3.53;;
24161;SDS011;12318;51.262;7.066;2023-09-18T04:20:23;18.83;;;4.00;;
24161;SDS011;12318;51.262;7.066;2023-09-18T04:23:16;10.05;;;3.80;;
24161;SDS011;12318;51.262;7.066;2023-09-18T04:25:35;13.05;;;3.58;;
24161;SDS011;12318;51.262;7.066;2023-09-18T04:28:01;13.32;;;4.05;;
24161;SDS011;12318;51.262;7.066;2023-09-18T04:30:27;14.27;;;3.92;;
24161;SDS011;12318;51.262;7.066;2023-09-18T04:32:53;9.02;;;3.65;;
24161;SDS011;12318;51.262;7.066;2023-09-18T04:35:19;10.40;;;3.67;;
24161;SDS011;12318;51.262;7.066;2023-09-18T04:37:46;13.25;;;3.75;;
24161;SDS011;12318;51.262;7.066;2023-09-18T04:40:13;11.80;;;4.05;;
24161;SDS011;12318;51.262;7.066;2023-09-18T04:42:40;15.20;;;3.83;;
24161;SDS011;12318;51.262;7.066;2023-09-18T04:45:06;14.18;;;3.88;;
24161;SDS011;12318;51.262;7.066;2023-09-18T04:47:33;13.30;;;3.70;;
24161;SDS011;12318;51.262;7.066;2023-09-18T04:49:59;12.10;;;3.58;;
24161;SDS011;12318;51.262;7.066;2023-09-18T04:52:25;13.30;;;4.43;;
24161;SDS011;12318;51.262;7.066;2023-09-18T04:54:51;14.10;;;3.85;;
24161;SDS011;12318;51.262;7.066;2023-09-18T04:57:19;15.70;;;4.00;;
24161;SDS011;12318;51.262;7.066;2023-09-18T04:59:45;11.18;;;3.67;;
24161;SDS011;12318;51.262;7.066;2023-09-18T05:02:11;14.02;;;4.22;;
24161;SDS011;12318;51.262;7.066;2023-09-18T05:04:37;20.85;;;4.18;;
24161;SDS011;12318;51.262;7.066;2023-09-18T05:07:03;18.02;;;4.05;;
24161;SDS011;12318;51.262;7.066;2023-09-18T05:09:29;15.75;;;4.38;;
24161;SDS011;12318;51.262;7.066;2023-09-18T05:11:56;18.95;;;4.32;;
24161;SDS011;12318;51.262;7.066;2023-09-18T05:14:23;14.88;;;4.13;;
24161;SDS011;12318;51.262;7.066;2023-09-18T05:16:49;21.05;;;4.35;;
24161;SDS011;12318;51.262;7.066;2023-09-18T05:19:15;11.00;;;3.67;;
24161;SDS011;12318;51.262;7.066;2023-09-18T05:21:41;13.85;;;3.78;;
24161;SDS011;12318;51.262;7.066;2023-09-18T05:24:08;14.00;;;3.90;;
24161;SDS011;12318;51.262;7.066;2023-09-18T05:26:34;14.60;;;3.63;;
24161;SDS011;12318;51.262;7.066;2023-09-18T05:29:00;13.20;;;3.50;;
24161;SDS011;12318;51.262;7.066;2023-09-18T05:31:28;12.52;;;3.50;;
24161;SDS011;12318;51.262;7.066;2023-09-18T05:33:55;14.23;;;3.75;;
24161;SDS011;12318;51.262;7.066;2023-09-18T05:36:21;15.38;;;3.75;;
24161;SDS011;12318;51.262;7.066;2023-09-18T05:38:47;10.95;;;3.38;;
24161;SDS011;12318;51.262;7.066;2023-09-18T05:41:13;16.40;;;3.88;;
24161;SDS011;12318;51.262;7.066;2023-09-18T05:43:40;21.33;;;4.10;;
24161;SDS011;12318;51.262;7.066;2023-09-18T05:46:06;15.13;;;4.07;;
24161;SDS011;12318;51.262;7.066;2023-09-18T05:48:32;14.63;;;3.35;;
24161;SDS011;12318;51.262;7.066;2023-09-18T05:50:58;11.75;;;3.42;;
24161;SDS011;12318;51.262;7.066;2023-09-18T05:53:25;9.38;;;3.30;;
24161;SDS011;12318;51.262;7.066;2023-09-18T05:55:51;14.27;;;3.47;;
24161;SDS011;12318;51.262;7.066;2023-09-18T05:58:17;11.73;;;3.40;;
24161;SDS011;12318;51.262;7.066;2023-09-18T06:00:47;17.55;;;3.65;;
24161;SDS011;12318;51.262;7.066;2023-09-18T06:03:14;13.32;;;3.33;;
24161;SDS011;12318;51.262;7.066;2023-09-18T06:05:43;13.07;;;3.47;;
24161;SDS011;12318;51.262;7.066;2023-09-18T06:08:09;12.77;;;3.17;;
24161;SDS011;12318;51.262;7.066;2023-09-18T06:10:36;10.80;;;3.20;;
24161;SDS011;12318;51.262;7.066;2023-09-18T06:13:02;9.68;;;3.03;;
24161;SDS011;12318;51.262;7.066;2023-09-18T06:15:31;13.02;;;3.22;;
24161;SDS011;12318;51.262;7.066;2023-09-18T06:17:57;15.50;;;3.80;;
24161;SDS011;12318;51.262;7.066;2023-09-18T06:20:23;10.35;;;3.30;;
24161;SDS011;12318;51.262;7.066;2023-09-18T06:22:49;13.73;;;3.08;;
24161;SDS011;12318;51.262;7.066;2023-09-18T06:25:15;12.43;;;3.28;;
24161;SDS011;12318;51.262;7.066;2023-09-18T06:27:41;11.20;;;3.63;;
24161;SDS011;12318;51.262;7.066;2023-09-18T06:30:08;11.77;;;3.03;;
24161;SDS011;12318;51.262;7.066;2023-09-18T06:32:34;12.52;;;3.10;;
24161;SDS011;12318;51.262;7.066;2023-09-18T06:35:02;12.45;;;3.10;;
24161;SDS011;12318;51.262;7.066;2023-09-18T06:37:28;9.82;;;2.90;;
24161;SDS011;12318;51.262;7.066;2023-09-18T06:39:54;14.30;;;3.42;;
24161;SDS011;12318;51.262;7.066;2023-09-18T06:42:21;15.48;;;3.00;;
24161;SDS011;12318;51.262;7.066;2023-09-18T06:44:47;10.70;;;2.70;;
24161;SDS011;12318;51.262;7.066;2023-09-18T06:47:13;11.25;;;2.72;;
24161;SDS011;12318;51.262;7.066;2023-09-18T06:49:41;10.20;;;2.72;;
24161;SDS011;12318;51.262;7.066;2023-09-18T06:52:08;11.70;;;2.88;;
24161;SDS011;12318;51.262;7.066;2023-09-18T06:54:34;10.48;;;2.60;;
24161;SDS011;12318;51.262;7.066;2023-09-18T06:57:01;11.85;;;2.80;;
24161;SDS011;12318;51.262;7.066;2023-09-18T06:59:28;9.00;;;2.70;;
24161;SDS011;12318;51.262;7.066;2023-09-18T07:01:55;9.98;;;2.45;;
24161;SDS011;12318;51.262;7.066;2023-09-18T07:04:21;10.93;;;2.30;;
24161;SDS011;12318;51.262;7.066;2023-09-18T07:06:47;11.48;;;2.53;;
24161;SDS011;12318;51.262;7.066;2023-09-18T07:09:13;16.75;;;2.53;;
24161;SDS011;12318;51.262;7.066;2023-09-18T07:11:39;12.73;;;4.90;;
24161;SDS011;12318;51.262;7.066;2023-09-18T07:14:06;8.73;;;4.43;;
24161;SDS011;12318;51.262;7.066;2023-09-18T07:16:33;9.20;;;2.45;;
24161;SDS011;12318;51.262;7.066;2023-09-18T07:18:59;8.48;;;3.08;;
24161;SDS011;12318;51.262;7.066;2023-09-18T07:21:26;14.48;;;2.47;;
24161;SDS011;12318;51.262;7.066;2023-09-18T07:23:54;11.95;;;2.10;;
24161;SDS011;12318;51.262;7.066;2023-09-18T07:26:20;8.30;;;2.05;;
24161;SDS011;12318;51.262;7.066;2023-09-18T07:28:46;10.18;;;2.08;;
24161;SDS011;12318;51.262;7.066;2023-09-18T07:31:13;9.27;;;2.10;;
24161;SDS011;12318;51.262;7.066;2023-09-18T07:33:40;7.10;;;2.03;;
24161;SDS011;12318;51.262;7.066;2023-09-18T07:36:06;9.07;;;2.00;;
24161;SDS011;12318;51.262;7.066;2023-09-18T07:38:32;33.88;;;4.47;;
24161;SDS011;12318;51.262;7.066;2023-09-18T07:40:59;11.57;;;2.60;;
24161;SDS011;12318;51.262;7.066;2023-09-18T07:43:25;45.80;;;5.93;;
24161;SDS011;12318;51.262;7.066;2023-09-18T07:45:52;86.25;;;10.02;;
24161;SDS011;12318;51.262;7.066;2023-09-18T07:48:19;10.80;;;2.17;;
24161;SDS011;12318;51.262;7.066;2023-09-18T07:50:45;11.02;;;2.80;;
24161;SDS011;12318;51.262;7.066;2023-09-18T07:53:14;20.10;;;3.17;;
24161;SDS011;12318;51.262;7.066;2023-09-18T07:55:41;14.40;;;2.63;;
24161;SDS011;12318;51.262;7.066;2023-09-18T07:58:07;5.18;;;1.80;;
24161;SDS011;12318;51.262;7.066;2023-09-18T08:00:34;10.68;;;2.20;;
24161;SDS011;12318;51.262;7.066;2023-09-18T08:03:00;7.60;;;2.33;;
24161;SDS011;12318;51.262;7.066;2023-09-18T08:05:27;10.75;;;1.80;;
24161;SDS011;12318;51.262;7.066;2023-09-18T08:07:54;9.35;;;1.90;;
24161;SDS011;12318;51.262;7.066;2023-09-18T08:10:24;7.78;;;2.03;;
24161;SDS011;12318;51.262;7.066;2023-09-18T08:12:51;12.40;;;2.10;;
24161;SDS011;12318;51.262;7.066;2023-09-18T08:15:20;12.50;;;2.60;;
24161;SDS011;12318;51.262;7.066;2023-09-18T08:17:47;8.35;;;2.08;;
24161;SDS011;12318;51.262;7.066;2023-09-18T08:20:14;26.50;;;2.10;;
24161;SDS011;12318;51.262;7.066;2023-09-18T08:22:40;10.63;;;2.17;;
24161;SDS011;12318;51.262;7.066;2023-09-18T08:25:07;6.35;;;1.95;;
24161;SDS011;12318;51.262;7.066;2023-09-18T08:27:39;4.90;;;1.65;;
24161;SDS011;12318;51.262;7.066;2023-09-18T08:30:14;10.20;;;2.00;;
24161;SDS011;12318;51.262;7.066;2023-09-18T08:32:42;9.18;;;1.70;;
24161;SDS011;12318;51.262;7.066;2023-09-18T08:35:08;9.98;;;1.70;;
24161;SDS011;12318;51.262;7.066;2023-09-18T08:37:35;10.82;;;2.20;;
24161;SDS011;12318;51.262;7.066;2023-09-18T08:40:01;12.10;;;2.10;;
24161;SDS011;12318;51.262;7.066;2023-09-18T08:42:34;18.52;;;2.65;;
24161;SDS011;12318;51.262;7.066;2023-09-18T08:45:01;9.68;;;2.17;;
24161;SDS011;12318;51.262;7.066;2023-09-18T08:47:29;10.95;;;2.15;;
24161;SDS011;12318;51.262;7.066;2023-09-18T08:49:56;10.70;;;2.35;;
24161;SDS011;12318;51.262;7.066;2023-09-18T08:52:23;8.70;;;1.85;;
24161;SDS011;12318;51.262;7.066;2023-09-18T08:54:49;12.73;;;2.10;;
24161;SDS011;12318;51.262;7.066;2023-09-18T08:57:16;10.30;;;2.10;;
24161;SDS011;12318;51.262;7.066;2023-09-18T08:59:43;6.32;;;1.60;;
24161;SDS011;12318;51.262;7.066;2023-09-18T09:02:10;5.05;;;1.70;;
24161;SDS011;12318;51.262;7.066;2023-09-18T09:04:38;7.38;;;1.55;;
24161;SDS011;12318;51.262;7.066;2023-09-18T09:07:04;4.28;;;1.35;;
24161;SDS011;12318;51.262;7.066;2023-09-18T09:09:30;8.10;;;1.70;;
24161;SDS011;12318;51.262;7.066;2023-09-18T09:11:56;7.50;;;1.70;;
24161;SDS011;12318;51.262;7.066;2023-09-18T09:14:22;5.65;;;1.30;;
24161;SDS011;12318;51.262;7.066;2023-09-18T09:16:55;5.55;;;1.27;;
24161;SDS011;12318;51.262;7.066;2023-09-18T09:19:29;6.05;;;1.50;;
24161;SDS011;12318;51.262;7.066;2023-09-18T09:21:55;6.97;;;1.60;;
24161;SDS011;12318;51.262;7.066;2023-09-18T09:24:41;5.68;;;1.50;;
24161;SDS011;12318;51.262;7.066;2023-09-18T09:27:08;5.68;;;1.50;;
24161;SDS011;12318;51.262;7.066;2023-09-18T09:29:35;6.32;;;1.40;;
24161;SDS011;12318;51.262;7.066;2023-09-18T09:32:14;4.97;;;1.33;;
24161;SDS011;12318;51.262;7.066;2023-09-18T09:34:41;4.22;;;1.63;;
24161;SDS011;12318;51.262;7.066;2023-09-18T09:37:08;4.35;;;1.65;;
24161;SDS011;12318;51.262;7.066;2023-09-18T09:39:34;4.45;;;1.20;;
24161;SDS011;12318;51.262;7.066;2023-09-18T09:42:01;5.28;;;1.27;;
24161;SDS011;12318;51.262;7.066;2023-09-18T09:44:32;6.07;;;1.50;;
24161;SDS011;12318;51.262;7.066;2023-09-18T09:46:59;8.32;;;1.45;;
24161;SDS011;12318;51.262;7.066;2023-09-18T09:49:25;4.80;;;1.48;;
24161;SDS011;12318;51.262;7.066;2023-09-18T09:51:58;6.18;;;1.10;;
24161;SDS011;12318;51.262;7.066;2023-09-18T09:54:34;5.10;;;1.38;;
24161;SDS011;12318;51.262;7.066;2023-09-18T09:57:02;5.80;;;1.20;;
24161;SDS011;12318;51.262;7.066;2023-09-18T09:59:29;3.75;;;1.25;;
24161;SDS011;12318;51.262;7.066;2023-09-18T10:01:58;6.70;;;1.27;;
24161;SDS011;12318;51.262;7.066;2023-09-18T10:04:25;5.35;;;1.30;;
24161;SDS011;12318;51.262;7.066;2023-09-18T10:06:52;5.43;;;2.00;;
24161;SDS011;12318;51.262;7.066;2023-09-18T10:09:21;4.15;;;1.30;;
24161;SDS011;12318;51.262;7.066;2023-09-18T10:11:52;5.72;;;1.05;;
24161;SDS011;12318;51.262;7.066;2023-09-18T10:14:19;4.40;;;1.27;;
24161;SDS011;12318;51.262;7.066;2023-09-18T10:16:49;7.65;;;1.13;;
24161;SDS011;12318;51.262;7.066;2023-09-18T10:19:23;6.07;;;1.50;;
24161;SDS011;12318;51.262;7.066;2023-09-18T10:21:57;7.18;;;1.50;;
24161;SDS011;12318;51.262;7.066;2023-09-18T10:24:28;4.28;;;1.25;;
24161;SDS011;12318;51.262;7.066;2023-09-18T10:26:56;4.63;;;1.33;;
24161;SDS011;12318;51.262;7.066;2023-09-18T10:29:23;6.20;;;1.30;;
24161;SDS011;12318;51.262;7.066;2023-09-18T10:31:50;2.03;;;1.17;;
24161;SDS011;12318;51.262;7.066;2023-09-18T10:34:20;2.42;;;1.23;;
24161;SDS011;12318;51.262;7.066;2023-09-18T10:36:47;8.48;;;2.28;;
24161;SDS011;12318;51.262;7.066;2023-09-18T10:39:14;5.75;;;1.20;;
24161;SDS011;12318;51.262;7.066;2023-09-18T10:41:48;6.22;;;1.17;;
24161;SDS011;12318;51.262;7.066;2023-09-18T10:44:15;4.32;;;1.27;;
24161;SDS011;12318;51.262;7.066;2023-09-18T10:46:42;6.55;;;1.10;;
24161;SDS011;12318;51.262;7.066;2023-09-18T10:49:09;4.38;;;1.10;;
24161;SDS011;12318;51.262;7.066;2023-09-18T10:51:36;7.50;;;1.60;;
24161;SDS011;12318;51.262;7.066;2023-09-18T10:54:10;5.10;;;1.00;;
24161;SDS011;12318;51.262;7.066;2023-09-18T10:56:36;4.45;;;1.42;;
24161;SDS011;12318;51.262;7.066;2023-09-18T10:59:05;7.70;;;1.40;;
24161;SDS011;12318;51.262;7.066;2023-09-18T11:01:32;4.60;;;1.10;;
24161;SDS011;12318;51.262;7.066;2023-09-18T11:04:03;4.38;;;1.10;;
24161;SDS011;12318;51.262;7.066;2023-09-18T11:06:49;5.15;;;1.13;;
24161;SDS011;12318;51.262;7.066;2023-09-18T11:09:19;7.82;;;1.30;;
24161;SDS011;12318;51.262;7.066;2023-09-18T11:11:45;5.32;;;1.40;;
24161;SDS011;12318;51.262;7.066;2023-09-18T11:14:14;8.15;;;1.15;;
24161;SDS011;12318;51.262;7.066;2023-09-18T11:16:43;7.95;;;1.40;;
24161;SDS011;12318;51.262;7.066;2023-09-18T11:19:12;7.90;;;1.38;;
24161;SDS011;12318;51.262;7.066;2023-09-18T11:21:39;3.28;;;1.20;;
24161;SDS011;12318;51.262;7.066;2023-09-18T11:26:36;9.02;;;1.80;;
24161;SDS011;12318;51.262;7.066;2023-09-18T11:29:06;3.53;;;1.27;;
24161;SDS011;12318;51.262;7.066;2023-09-18T11:34:30;5.00;;;1.30;;
24161;SDS011;12318;51.262;7.066;2023-09-18T11:37:22;6.22;;;0.90;;
24161;SDS011;12318;51.262;7.066;2023-09-18T11:39:50;10.98;;;1.40;;
24161;SDS011;12318;51.262;7.066;2023-09-18T11:42:20;4.97;;;1.08;;
24161;SDS011;12318;51.262;7.066;2023-09-18T11:44:53;7.13;;;1.55;;
24161;SDS011;12318;51.262;7.066;2023-09-18T11:47:23;3.97;;;1.27;;
24161;SDS011;12318;51.262;7.066;2023-09-18T11:52:21;9.85;;;1.23;;
24161;SDS011;12318;51.262;7.066;2023-09-18T11:54:48;6.25;;;1.48;;
24161;SDS011;12318;51.262;7.066;2023-09-18T11:57:16;8.43;;;1.23;;
24161;SDS011;12318;51.262;7.066;2023-09-18T11:59:42;6.20;;;1.17;;
24161;SDS011;12318;51.262;7.066;2023-09-18T12:02:32;3.50;;;1.17;;
24161;SDS011;12318;51.262;7.066;2023-09-18T12:05:10;10.00;;;1.10;;
24161;SDS011;12318;51.262;7.066;2023-09-18T12:07:36;4.47;;;1.13;;
24161;SDS011;12318;51.262;7.066;2023-09-18T12:10:04;8.00;;;1.15;;
24161;SDS011;12318;51.262;7.066;2023-09-18T12:12:30;4.35;;;1.42;;
24161;SDS011;12318;51.262;7.066;2023-09-18T12:14:57;9.25;;;1.10;;
24161;SDS011;12318;51.262;7.066;2023-09-18T12:17:23;5.25;;;1.20;;
24161;SDS011;12318;51.262;7.066;2023-09-18T12:19:52;2.88;;;1.10;;
24161;SDS011;12318;51.262;7.066;2023-09-18T12:22:25;5.15;;;1.58;;
24161;SDS011;12318;51.262;7.066;2023-09-18T12:24:52;8.18;;;1.30;;
24161;SDS011;12318;51.262;7.066;2023-09-18T12:27:18;5.57;;;1.00;;
24161;SDS011;12318;51.262;7.066;2023-09-18T12:29:44;5.50;;;1.30;;
24161;SDS011;12318;51.262;7.066;2023-09-18T12:32:13;7.15;;;1.40;;
24161;SDS011;12318;51.262;7.066;2023-09-18T12:34:42;8.15;;;1.50;;
24161;SDS011;12318;51.262;7.066;2023-09-18T12:37:08;9.30;;;1.10;;
24161;SDS011;12318;51.262;7.066;2023-09-18T12:39:36;5.35;;;1.30;;
24161;SDS011;12318;51.262;7.066;2023-09-18T12:42:02;4.47;;;1.20;;
24161;SDS011;12318;51.262;7.066;2023-09-18T12:44:29;7.20;;;1.33;;
24161;SDS011;12318;51.262;7.066;2023-09-18T12:46:55;5.65;;;1.40;;
24161;SDS011;12318;51.262;7.066;2023-09-18T12:49:22;2.95;;;1.20;;
24161;SDS011;12318;51.262;7.066;2023-09-18T12:54:19;6.57;;;1.30;;
24161;SDS011;12318;51.262;7.066;2023-09-18T12:56:45;3.45;;;1.10;;
24161;SDS011;12318;51.262;7.066;2023-09-18T12:59:11;8.30;;;1.55;;
24161;SDS011;12318;51.262;7.066;2023-09-18T13:01:38;5.35;;;1.20;;
24161;SDS011;12318;51.262;7.066;2023-09-18T13:04:04;9.05;;;1.38;;
24161;SDS011;12318;51.262;7.066;2023-09-18T13:06:31;8.63;;;1.65;;
24161;SDS011;12318;51.262;7.066;2023-09-18T13:09:14;6.95;;;1.50;;
24161;SDS011;12318;51.262;7.066;2023-09-18T13:11:56;5.95;;;1.60;;
24161;SDS011;12318;51.262;7.066;2023-09-18T13:14:23;6.95;;;1.40;;
24161;SDS011;12318;51.262;7.066;2023-09-18T13:16:50;11.93;;;1.17;;
24161;SDS011;12318;51.262;7.066;2023-09-18T13:19:17;8.80;;;1.55;;
24161;SDS011;12318;51.262;7.066;2023-09-18T13:21:49;8.75;;;1.45;;
24161;SDS011;12318;51.262;7.066;2023-09-18T13:24:31;6.15;;;1.42;;
24161;SDS011;12318;51.262;7.066;2023-09-18T13:26:57;6.60;;;1.20;;
24161;SDS011;12318;51.262;7.066;2023-09-18T13:29:26;9.45;;;1.38;;
24161;SDS011;12318;51.262;7.066;2023-09-18T13:31:52;6.50;;;1.13;;
24161;SDS011;12318;51.262;7.066;2023-09-18T13:34:19;3.38;;;1.27;;
24161;SDS011;12318;51.262;7.066;2023-09-18T13:36:46;12.32;;;1.60;;
24161;SDS011;12318;51.262;7.066;2023-09-18T13:39:12;9.05;;;1.70;;
24161;SDS011;12318;51.262;7.066;2023-09-18T13:41:42;5.47;;;1.35;;
24161;SDS011;12318;51.262;7.066;2023-09-18T13:44:08;6.40;;;1.30;;
24161;SDS011;12318;51.262;7.066;2023-09-18T13:46:35;4.45;;;1.30;;
24161;SDS011;12318;51.262;7.066;2023-09-18T13:49:02;5.53;;;1.23;;
24161;SDS011;12318;51.262;7.066;2023-09-18T13:51:29;6.07;;;1.52;;
24161;SDS011;12318;51.262;7.066;2023-09-18T13:53:56;4.18;;;1.25;;
24161;SDS011;12318;51.262;7.066;2023-09-18T13:56:22;2.78;;;1.17;;
24161;SDS011;12318;51.262;7.066;2023-09-18T13:58:53;6.55;;;1.17;;
24161;SDS011;12318;51.262;7.066;2023-09-18T14:01:19;8.48;;;1.25;;
24161;SDS011;12318;51.262;7.066;2023-09-18T14:03:45;7.97;;;1.10;;
24161;SDS011;12318;51.262;7.066;2023-09-18T14:06:11;4.90;;;1.50;;
24161;SDS011;12318;51.262;7.066;2023-09-18T14:08:37;9.27;;;1.63;;
24161;SDS011;12318;51.262;7.066;2023-09-18T14:11:05;5.97;;;1.38;;
24161;SDS011;12318;51.262;7.066;2023-09-18T14:13:32;6.40;;;1.30;;
24161;SDS011;12318;51.262;7.066;2023-09-18T14:15:58;2.50;;;1.10;;
24161;SDS011;12318;51.262;7.066;2023-09-18T14:18:24;6.13;;;1.65;;
24161;SDS011;12318;51.262;7.066;2023-09-18T14:20:50;5.88;;;1.50;;
24161;SDS011;12318;51.262;7.066;2023-09-18T14:23:17;8.48;;;1.30;;
24161;SDS011;12318;51.262;7.066;2023-09-18T14:25:43;5.53;;;1.30;;
24161;SDS011;12318;51.262;7.066;2023-09-18T14:28:09;3.00;;;1.17;;
24161;SDS011;12318;51.262;7.066;2023-09-18T14:30:35;4.15;;;1.10;;
24161;SDS011;12318;51.262;7.066;2023-09-18T14:33:01;6.53;;;1.30;;
24161;SDS011;12318;51.262;7.066;2023-09-18T14:35:28;1.52;;;1.15;;
24161;SDS011;12318;51.262;7.066;2023-09-18T14:37:54;4.03;;;1.20;;
24161;SDS011;12318;51.262;7.066;2023-09-18T14:40:20;2.55;;;1.23;;
24161;SDS011;12318;51.262;7.066;2023-09-18T14:42:47;5.15;;;1.55;;
24161;SDS011;12318;51.262;7.066;2023-09-18T14:45:13;2.90;;;1.15;;
24161;SDS011;12318;51.262;7.066;2023-09-18T14:47:39;2.13;;;1.15;;
24161;SDS011;12318;51.262;7.066;2023-09-18T14:50:05;8.52;;;1.40;;
24161;SDS011;12318;51.262;7.066;2023-09-18T14:52:31;2.75;;;1.27;;
24161;SDS011;12318;51.262;7.066;2023-09-18T14:54:58;6.20;;;1.30;;
24161;SDS011;12318;51.262;7.066;2023-09-18T14:57:25;4.80;;;1.30;;